sensor_id;sensor_type;location;lat;lon;timestamp;temperature;humidity
10451;DHT22;5273;51.290;6.918;2023-05-10T00:01:20;14.30;99.90
10451;DHT22;5273;51.290;6.918;2023-05-10T00:03:47;14.40;99.90
10451;DHT22;5273;51.290;6.918;2023-05-10T00:06:13;14.30;99.90
10451;DHT22;5273;51.290;6.918;2023-05-10T00:08:40;14.30;99.90
10451;DHT22;5273;51.290;6.918;2023-05-10T00:11:08;14.30;99.90
10451;DHT22;5273;51.290;6.918;2023-05-10T00:13:35;14.30;99.90
10451;DHT22;5273;51.290;6.918;2023-05-10T00:16:02;14.40;99.90
10451;DHT22;5273;51.290;6.918;2023-05-10T00:18:29;14.30;99.90
10451;DHT22;5273;51.290;6.918;2023-05-10T00:20:56;14.30;99.90
10451;DHT22;5273;51.290;6.918;2023-05-10T00:23:23;14.30;99.90
10451;DHT22;5273;51.290;6.918;2023-05-10T00:25:49;14.40;99.90
10451;DHT22;5273;51.290;6.918;2023-05-10T00:28:17;14.40;99.90
10451;DHT22;5273;51.290;6.918;2023-05-10T00:30:44;14.30;99.90
10451;DHT22;5273;51.290;6.918;2023-05-10T00:33:11;14.40;99.90
10451;DHT22;5273;51.290;6.918;2023-05-10T00:35:38;14.30;99.90
10451;DHT22;5273;51.290;6.918;2023-05-10T00:38:04;14.30;99.90
10451;DHT22;5273;51.290;6.918;2023-05-10T00:40:31;14.30;99.90
10451;DHT22;5273;51.290;6.918;2023-05-10T00:42:58;14.20;99.90
10451;DHT22;5273;51.290;6.918;2023-05-10T00:45:28;14.20;99.90
10451;DHT22;5273;51.290;6.918;2023-05-10T00:47:55;14.30;99.90
10451;DHT22;5273;51.290;6.918;2023-05-10T00:50:22;14.20;99.90
10451;DHT22;5273;51.290;6.918;2023-05-10T00:52:49;14.10;99.90
10451;DHT22;5273;51.290;6.918;2023-05-10T00:55:16;14.10;99.90
10451;DHT22;5273;51.290;6.918;2023-05-10T00:57:44;14.10;99.90
10451;DHT22;5273;51.290;6.918;2023-05-10T01:00:12;14.10;99.90
10451;DHT22;5273;51.290;6.918;2023-05-10T01:02:44;14.10;99.90
10451;DHT22;5273;51.290;6.918;2023-05-10T01:05:12;14.00;99.90
10451;DHT22;5273;51.290;6.918;2023-05-10T01:07:39;14.00;99.90
10451;DHT22;5273;51.290;6.918;2023-05-10T01:10:07;14.00;99.90
10451;DHT22;5273;51.290;6.918;2023-05-10T01:12:37;14.00;99.90
10451;DHT22;5273;51.290;6.918;2023-05-10T01:15:05;14.00;99.90
10451;DHT22;5273;51.290;6.918;2023-05-10T01:17:33;14.00;99.90
10451;DHT22;5273;51.290;6.918;2023-05-10T01:20:03;14.20;99.90
10451;DHT22;5273;51.290;6.918;2023-05-10T01:22:50;14.00;99.90
10451;DHT22;5273;51.290;6.918;2023-05-10T01:25:35;13.90;99.90
10451;DHT22;5273;51.290;6.918;2023-05-10T01:28:51;14.00;99.90
10451;DHT22;5273;51.290;6.918;2023-05-10T01:31:33;14.00;99.90
10451;DHT22;5273;51.290;6.918;2023-05-10T01:34:09;14.00;99.90
10451;DHT22;5273;51.290;6.918;2023-05-10T01:36:43;14.00;99.90
10451;DHT22;5273;51.290;6.918;2023-05-10T01:39:16;14.00;99.90
10451;DHT22;5273;51.290;6.918;2023-05-10T01:41:49;14.00;99.90
10451;DHT22;5273;51.290;6.918;2023-05-10T01:44:23;14.00;99.90
10451;DHT22;5273;51.290;6.918;2023-05-10T01:46:57;14.00;99.90
10451;DHT22;5273;51.290;6.918;2023-05-10T01:49:31;14.00;99.90
10451;DHT22;5273;51.290;6.918;2023-05-10T01:52:03;14.00;99.90
10451;DHT22;5273;51.290;6.918;2023-05-10T01:54:33;13.60;99.90
10451;DHT22;5273;51.290;6.918;2023-05-10T01:57:05;13.90;99.90
10451;DHT22;5273;51.290;6.918;2023-05-10T01:59:34;13.90;99.90
10451;DHT22;5273;51.290;6.918;2023-05-10T02:02:05;13.90;99.90
10451;DHT22;5273;51.290;6.918;2023-05-10T02:04:35;13.90;99.90
10451;DHT22;5273;51.290;6.918;2023-05-10T02:07:04;13.90;99.90
10451;DHT22;5273;51.290;6.918;2023-05-10T02:09:32;14.00;99.90
10451;DHT22;5273;51.290;6.918;2023-05-10T02:12:01;13.90;99.90
10451;DHT22;5273;51.290;6.918;2023-05-10T02:14:31;14.00;99.90
10451;DHT22;5273;51.290;6.918;2023-05-10T02:16:59;14.00;99.90
10451;DHT22;5273;51.290;6.918;2023-05-10T02:19:28;14.10;99.90
10451;DHT22;5273;51.290;6.918;2023-05-10T02:21:57;14.10;99.90
10451;DHT22;5273;51.290;6.918;2023-05-10T02:24:25;14.00;99.90
10451;DHT22;5273;51.290;6.918;2023-05-10T02:26:53;14.00;99.90
10451;DHT22;5273;51.290;6.918;2023-05-10T02:29:22;14.10;99.90
10451;DHT22;5273;51.290;6.918;2023-05-10T02:31:51;14.10;99.90
10451;DHT22;5273;51.290;6.918;2023-05-10T02:34:19;14.00;99.90
10451;DHT22;5273;51.290;6.918;2023-05-10T02:36:48;14.10;99.90
10451;DHT22;5273;51.290;6.918;2023-05-10T02:39:16;14.10;99.90
10451;DHT22;5273;51.290;6.918;2023-05-10T02:41:46;14.00;99.90
10451;DHT22;5273;51.290;6.918;2023-05-10T02:44:15;14.00;99.90
10451;DHT22;5273;51.290;6.918;2023-05-10T02:46:43;14.00;99.90
10451;DHT22;5273;51.290;6.918;2023-05-10T02:49:10;14.00;99.90
10451;DHT22;5273;51.290;6.918;2023-05-10T02:51:40;13.90;99.90
10451;DHT22;5273;51.290;6.918;2023-05-10T02:54:11;13.90;99.90
10451;DHT22;5273;51.290;6.918;2023-05-10T02:56:43;14.00;99.90
10451;DHT22;5273;51.290;6.918;2023-05-10T02:59:13;14.00;99.90
10451;DHT22;5273;51.290;6.918;2023-05-10T03:01:40;14.00;99.90
10451;DHT22;5273;51.290;6.918;2023-05-10T03:04:07;14.00;99.90
10451;DHT22;5273;51.290;6.918;2023-05-10T03:06:34;14.00;99.90
10451;DHT22;5273;51.290;6.918;2023-05-10T03:09:02;14.00;99.90
10451;DHT22;5273;51.290;6.918;2023-05-10T03:11:39;14.00;99.90
10451;DHT22;5273;51.290;6.918;2023-05-10T03:14:21;14.00;99.90
10451;DHT22;5273;51.290;6.918;2023-05-10T03:16:57;14.10;99.90
10451;DHT22;5273;51.290;6.918;2023-05-10T03:19:39;14.00;99.90
10451;DHT22;5273;51.290;6.918;2023-05-10T03:22:10;14.10;99.90
10451;DHT22;5273;51.290;6.918;2023-05-10T03:24:40;14.00;99.90
10451;DHT22;5273;51.290;6.918;2023-05-10T03:27:08;14.10;99.90
10451;DHT22;5273;51.290;6.918;2023-05-10T03:29:37;14.10;99.90
10451;DHT22;5273;51.290;6.918;2023-05-10T03:32:05;14.10;99.90
10451;DHT22;5273;51.290;6.918;2023-05-10T03:34:32;14.00;99.90
10451;DHT22;5273;51.290;6.918;2023-05-10T03:36:59;14.00;99.90
10451;DHT22;5273;51.290;6.918;2023-05-10T03:39:26;14.00;99.90
10451;DHT22;5273;51.290;6.918;2023-05-10T03:41:52;14.00;99.90
10451;DHT22;5273;51.290;6.918;2023-05-10T03:44:19;14.00;99.90
10451;DHT22;5273;51.290;6.918;2023-05-10T03:46:47;14.00;99.90
10451;DHT22;5273;51.290;6.918;2023-05-10T03:49:14;14.00;99.90
10451;DHT22;5273;51.290;6.918;2023-05-10T03:51:41;14.00;99.90
10451;DHT22;5273;51.290;6.918;2023-05-10T03:54:08;14.10;99.90
10451;DHT22;5273;51.290;6.918;2023-05-10T03:56:34;14.10;99.90
10451;DHT22;5273;51.290;6.918;2023-05-10T03:59:01;14.10;99.90
10451;DHT22;5273;51.290;6.918;2023-05-10T04:01:32;14.00;99.90
10451;DHT22;5273;51.290;6.918;2023-05-10T04:04:00;14.00;99.90
10451;DHT22;5273;51.290;6.918;2023-05-10T04:06:27;14.00;99.90
10451;DHT22;5273;51.290;6.918;2023-05-10T04:08:54;14.10;99.90
10451;DHT22;5273;51.290;6.918;2023-05-10T04:11:21;14.00;99.90
10451;DHT22;5273;51.290;6.918;2023-05-10T04:13:48;14.00;99.90
10451;DHT22;5273;51.290;6.918;2023-05-10T04:16:14;14.00;99.90
10451;DHT22;5273;51.290;6.918;2023-05-10T04:18:41;14.00;99.90
10451;DHT22;5273;51.290;6.918;2023-05-10T04:21:12;14.00;99.90
10451;DHT22;5273;51.290;6.918;2023-05-10T04:23:39;14.10;99.90
10451;DHT22;5273;51.290;6.918;2023-05-10T04:26:06;14.00;99.90
10451;DHT22;5273;51.290;6.918;2023-05-10T04:28:33;14.00;99.90
10451;DHT22;5273;51.290;6.918;2023-05-10T04:31:03;13.90;99.90
10451;DHT22;5273;51.290;6.918;2023-05-10T04:33:30;14.00;99.90
10451;DHT22;5273;51.290;6.918;2023-05-10T04:35:57;14.00;99.90
10451;DHT22;5273;51.290;6.918;2023-05-10T04:38:25;13.90;99.90
10451;DHT22;5273;51.290;6.918;2023-05-10T04:40:52;14.00;99.90
10451;DHT22;5273;51.290;6.918;2023-05-10T04:43:19;14.00;99.90
10451;DHT22;5273;51.290;6.918;2023-05-10T04:45:46;14.00;99.90
10451;DHT22;5273;51.290;6.918;2023-05-10T04:48:12;13.90;99.90
10451;DHT22;5273;51.290;6.918;2023-05-10T04:50:39;14.00;99.90
10451;DHT22;5273;51.290;6.918;2023-05-10T04:53:06;13.90;99.90
10451;DHT22;5273;51.290;6.918;2023-05-10T04:55:34;14.00;99.90
10451;DHT22;5273;51.290;6.918;2023-05-10T04:58:01;14.00;99.90
10451;DHT22;5273;51.290;6.918;2023-05-10T05:00:28;14.00;99.90
10451;DHT22;5273;51.290;6.918;2023-05-10T05:02:55;14.00;99.90
10451;DHT22;5273;51.290;6.918;2023-05-10T05:05:21;14.00;99.90
10451;DHT22;5273;51.290;6.918;2023-05-10T05:07:48;14.00;99.90
10451;DHT22;5273;51.290;6.918;2023-05-10T05:10:15;14.00;99.90
10451;DHT22;5273;51.290;6.918;2023-05-10T05:12:43;13.90;99.90
10451;DHT22;5273;51.290;6.918;2023-05-10T05:15:10;14.00;99.90
10451;DHT22;5273;51.290;6.918;2023-05-10T05:17:37;14.00;99.90
10451;DHT22;5273;51.290;6.918;2023-05-10T05:20:05;14.00;99.90
10451;DHT22;5273;51.290;6.918;2023-05-10T05:22:32;14.00;99.90
10451;DHT22;5273;51.290;6.918;2023-05-10T05:24:59;14.00;99.90
10451;DHT22;5273;51.290;6.918;2023-05-10T05:27:27;14.10;99.90
10451;DHT22;5273;51.290;6.918;2023-05-10T05:29:56;14.10;99.90
10451;DHT22;5273;51.290;6.918;2023-05-10T05:32:23;14.10;99.90
10451;DHT22;5273;51.290;6.918;2023-05-10T05:34:50;14.20;99.90
10451;DHT22;5273;51.290;6.918;2023-05-10T05:37:18;14.20;99.90
10451;DHT22;5273;51.290;6.918;2023-05-10T05:39:46;14.30;99.90
10451;DHT22;5273;51.290;6.918;2023-05-10T05:42:13;14.30;99.90
10451;DHT22;5273;51.290;6.918;2023-05-10T05:44:41;14.30;99.90
10451;DHT22;5273;51.290;6.918;2023-05-10T05:47:10;14.40;99.90
10451;DHT22;5273;51.290;6.918;2023-05-10T05:49:37;14.40;99.90
10451;DHT22;5273;51.290;6.918;2023-05-10T05:52:04;14.40;99.90
10451;DHT22;5273;51.290;6.918;2023-05-10T05:54:31;14.40;99.90
10451;DHT22;5273;51.290;6.918;2023-05-10T05:56:59;14.50;99.90
10451;DHT22;5273;51.290;6.918;2023-05-10T05:59:26;14.40;99.90
10451;DHT22;5273;51.290;6.918;2023-05-10T06:01:53;14.40;99.90
10451;DHT22;5273;51.290;6.918;2023-05-10T06:04:21;14.30;99.90
10451;DHT22;5273;51.290;6.918;2023-05-10T06:06:47;14.40;99.90
10451;DHT22;5273;51.290;6.918;2023-05-10T06:09:14;14.30;99.90
10451;DHT22;5273;51.290;6.918;2023-05-10T06:11:41;14.30;99.90
10451;DHT22;5273;51.290;6.918;2023-05-10T06:14:08;14.30;99.90
10451;DHT22;5273;51.290;6.918;2023-05-10T06:16:35;14.40;99.90
10451;DHT22;5273;51.290;6.918;2023-05-10T06:19:02;14.30;99.90
10451;DHT22;5273;51.290;6.918;2023-05-10T06:21:30;14.30;99.90
10451;DHT22;5273;51.290;6.918;2023-05-10T06:23:57;14.20;99.90
10451;DHT22;5273;51.290;6.918;2023-05-10T06:26:23;14.20;99.90
10451;DHT22;5273;51.290;6.918;2023-05-10T06:28:50;14.20;99.90
10451;DHT22;5273;51.290;6.918;2023-05-10T06:31:17;14.10;99.90
10451;DHT22;5273;51.290;6.918;2023-05-10T06:33:44;14.00;99.90
10451;DHT22;5273;51.290;6.918;2023-05-10T06:36:11;14.20;99.90
10451;DHT22;5273;51.290;6.918;2023-05-10T06:38:40;14.20;99.90
10451;DHT22;5273;51.290;6.918;2023-05-10T06:41:06;14.30;99.90
10451;DHT22;5273;51.290;6.918;2023-05-10T06:43:33;14.20;99.90
10451;DHT22;5273;51.290;6.918;2023-05-10T06:46:00;14.20;99.90
10451;DHT22;5273;51.290;6.918;2023-05-10T06:48:27;14.30;99.90
10451;DHT22;5273;51.290;6.918;2023-05-10T06:50:54;14.30;99.90
10451;DHT22;5273;51.290;6.918;2023-05-10T06:53:21;14.30;99.90
10451;DHT22;5273;51.290;6.918;2023-05-10T06:55:50;14.30;99.90
10451;DHT22;5273;51.290;6.918;2023-05-10T06:58:17;14.30;99.90
10451;DHT22;5273;51.290;6.918;2023-05-10T07:00:44;14.30;99.90
10451;DHT22;5273;51.290;6.918;2023-05-10T07:03:12;14.40;99.90
10451;DHT22;5273;51.290;6.918;2023-05-10T07:05:39;14.40;99.90
10451;DHT22;5273;51.290;6.918;2023-05-10T07:08:05;14.40;99.90
10451;DHT22;5273;51.290;6.918;2023-05-10T07:10:33;14.40;99.90
10451;DHT22;5273;51.290;6.918;2023-05-10T07:13:01;14.30;99.90
10451;DHT22;5273;51.290;6.918;2023-05-10T07:15:27;14.30;99.90
10451;DHT22;5273;51.290;6.918;2023-05-10T07:17:54;14.20;99.90
10451;DHT22;5273;51.290;6.918;2023-05-10T07:20:21;14.20;99.90
10451;DHT22;5273;51.290;6.918;2023-05-10T07:22:48;14.10;99.90
10451;DHT22;5273;51.290;6.918;2023-05-10T07:25:15;14.20;99.90
10451;DHT22;5273;51.290;6.918;2023-05-10T07:27:42;14.20;99.90
10451;DHT22;5273;51.290;6.918;2023-05-10T07:30:11;14.30;99.90
10451;DHT22;5273;51.290;6.918;2023-05-10T07:32:38;14.40;99.90
10451;DHT22;5273;51.290;6.918;2023-05-10T07:35:08;14.50;99.90
10451;DHT22;5273;51.290;6.918;2023-05-10T07:37:34;14.50;99.90
10451;DHT22;5273;51.290;6.918;2023-05-10T07:40:01;14.60;99.90
10451;DHT22;5273;51.290;6.918;2023-05-10T07:42:28;14.60;99.90
10451;DHT22;5273;51.290;6.918;2023-05-10T07:44:55;14.60;99.90
10451;DHT22;5273;51.290;6.918;2023-05-10T07:47:23;14.60;99.90
10451;DHT22;5273;51.290;6.918;2023-05-10T07:49:50;14.60;99.90
10451;DHT22;5273;51.290;6.918;2023-05-10T07:52:16;14.70;99.90
10451;DHT22;5273;51.290;6.918;2023-05-10T07:54:43;14.70;99.90
10451;DHT22;5273;51.290;6.918;2023-05-10T07:57:10;14.80;99.90
10451;DHT22;5273;51.290;6.918;2023-05-10T07:59:40;14.90;99.90
10451;DHT22;5273;51.290;6.918;2023-05-10T08:02:06;15.10;99.90
10451;DHT22;5273;51.290;6.918;2023-05-10T08:04:34;15.20;99.90
10451;DHT22;5273;51.290;6.918;2023-05-10T08:07:01;15.30;99.90
10451;DHT22;5273;51.290;6.918;2023-05-10T08:09:28;15.40;99.90
10451;DHT22;5273;51.290;6.918;2023-05-10T08:11:55;15.50;99.90
10451;DHT22;5273;51.290;6.918;2023-05-10T08:14:22;15.70;99.90
10451;DHT22;5273;51.290;6.918;2023-05-10T08:16:48;15.80;99.90
10451;DHT22;5273;51.290;6.918;2023-05-10T08:19:15;15.90;99.90
10451;DHT22;5273;51.290;6.918;2023-05-10T08:21:45;15.90;99.90
10451;DHT22;5273;51.290;6.918;2023-05-10T08:24:12;15.90;99.90
10451;DHT22;5273;51.290;6.918;2023-05-10T08:26:39;15.80;99.90
10451;DHT22;5273;51.290;6.918;2023-05-10T08:29:06;15.70;99.90
10451;DHT22;5273;51.290;6.918;2023-05-10T08:31:32;15.60;99.90
10451;DHT22;5273;51.290;6.918;2023-05-10T08:33:59;15.60;99.90
10451;DHT22;5273;51.290;6.918;2023-05-10T08:36:26;15.60;99.90
10451;DHT22;5273;51.290;6.918;2023-05-10T08:38:55;15.60;99.90
10451;DHT22;5273;51.290;6.918;2023-05-10T08:41:22;15.70;99.90
10451;DHT22;5273;51.290;6.918;2023-05-10T08:43:51;15.70;99.90
10451;DHT22;5273;51.290;6.918;2023-05-10T08:46:20;15.80;99.90
10451;DHT22;5273;51.290;6.918;2023-05-10T08:48:49;15.90;99.90
10451;DHT22;5273;51.290;6.918;2023-05-10T08:51:18;16.10;99.90
10451;DHT22;5273;51.290;6.918;2023-05-10T08:53:45;16.30;99.90
10451;DHT22;5273;51.290;6.918;2023-05-10T08:56:14;16.40;99.90
10451;DHT22;5273;51.290;6.918;2023-05-10T08:58:43;16.60;99.90
10451;DHT22;5273;51.290;6.918;2023-05-10T09:01:10;16.50;99.90
10451;DHT22;5273;51.290;6.918;2023-05-10T09:03:39;16.80;99.90
10451;DHT22;5273;51.290;6.918;2023-05-10T09:06:06;16.80;99.90
10451;DHT22;5273;51.290;6.918;2023-05-10T09:08:34;16.80;99.90
10451;DHT22;5273;51.290;6.918;2023-05-10T09:11:03;16.90;99.90
10451;DHT22;5273;51.290;6.918;2023-05-10T09:13:31;17.10;99.90
10451;DHT22;5273;51.290;6.918;2023-05-10T09:15:59;17.10;99.90
10451;DHT22;5273;51.290;6.918;2023-05-10T09:18:28;17.10;99.90
10451;DHT22;5273;51.290;6.918;2023-05-10T09:20:54;17.00;99.90
10451;DHT22;5273;51.290;6.918;2023-05-10T09:23:21;16.80;99.90
10451;DHT22;5273;51.290;6.918;2023-05-10T09:26:01;16.60;99.90
10451;DHT22;5273;51.290;6.918;2023-05-10T09:28:33;16.40;99.90
10451;DHT22;5273;51.290;6.918;2023-05-10T09:31:00;16.20;99.90
10451;DHT22;5273;51.290;6.918;2023-05-10T09:33:27;16.00;99.90
10451;DHT22;5273;51.290;6.918;2023-05-10T09:35:53;15.90;99.90
10451;DHT22;5273;51.290;6.918;2023-05-10T09:38:20;15.80;99.90
10451;DHT22;5273;51.290;6.918;2023-05-10T09:40:51;15.90;99.90
10451;DHT22;5273;51.290;6.918;2023-05-10T09:43:20;15.80;99.90
10451;DHT22;5273;51.290;6.918;2023-05-10T09:45:48;15.90;99.90
10451;DHT22;5273;51.290;6.918;2023-05-10T09:48:15;16.00;99.90
10451;DHT22;5273;51.290;6.918;2023-05-10T09:50:42;16.00;99.90
10451;DHT22;5273;51.290;6.918;2023-05-10T09:53:09;16.10;99.90
10451;DHT22;5273;51.290;6.918;2023-05-10T09:55:42;16.20;99.90
10451;DHT22;5273;51.290;6.918;2023-05-10T09:58:10;16.30;99.90
10451;DHT22;5273;51.290;6.918;2023-05-10T10:00:38;16.30;99.90
10451;DHT22;5273;51.290;6.918;2023-05-10T10:03:13;16.30;99.90
10451;DHT22;5273;51.290;6.918;2023-05-10T10:05:41;16.30;99.90
10451;DHT22;5273;51.290;6.918;2023-05-10T10:08:09;16.50;99.90
10451;DHT22;5273;51.290;6.918;2023-05-10T10:10:36;16.50;99.90
10451;DHT22;5273;51.290;6.918;2023-05-10T10:13:04;16.60;99.90
10451;DHT22;5273;51.290;6.918;2023-05-10T10:15:31;16.60;99.90
10451;DHT22;5273;51.290;6.918;2023-05-10T10:17:59;16.70;99.90
10451;DHT22;5273;51.290;6.918;2023-05-10T10:20:28;16.90;99.90
10451;DHT22;5273;51.290;6.918;2023-05-10T10:22:54;17.10;99.90
10451;DHT22;5273;51.290;6.918;2023-05-10T10:25:22;17.20;99.90
10451;DHT22;5273;51.290;6.918;2023-05-10T10:27:59;17.30;99.90
10451;DHT22;5273;51.290;6.918;2023-05-10T10:30:35;17.40;99.90
10451;DHT22;5273;51.290;6.918;2023-05-10T10:33:18;17.40;99.90
10451;DHT22;5273;51.290;6.918;2023-05-10T10:35:58;17.40;99.90
10451;DHT22;5273;51.290;6.918;2023-05-10T10:38:25;17.20;99.90
10451;DHT22;5273;51.290;6.918;2023-05-10T10:41:02;17.00;99.90
10451;DHT22;5273;51.290;6.918;2023-05-10T10:43:29;16.80;99.90
10451;DHT22;5273;51.290;6.918;2023-05-10T10:46:12;16.60;99.90
10451;DHT22;5273;51.290;6.918;2023-05-10T10:48:40;16.50;99.90
10451;DHT22;5273;51.290;6.918;2023-05-10T10:51:08;16.30;99.90
10451;DHT22;5273;51.290;6.918;2023-05-10T10:53:37;16.20;99.90
10451;DHT22;5273;51.290;6.918;2023-05-10T10:56:08;16.20;99.90
10451;DHT22;5273;51.290;6.918;2023-05-10T10:58:36;16.30;99.90
10451;DHT22;5273;51.290;6.918;2023-05-10T11:01:10;16.30;99.90
10451;DHT22;5273;51.290;6.918;2023-05-10T11:03:38;16.30;99.90
10451;DHT22;5273;51.290;6.918;2023-05-10T11:06:04;16.30;99.90
10451;DHT22;5273;51.290;6.918;2023-05-10T11:08:34;16.40;99.90
10451;DHT22;5273;51.290;6.918;2023-05-10T11:11:05;16.50;99.90
10451;DHT22;5273;51.290;6.918;2023-05-10T11:13:39;16.50;99.90
10451;DHT22;5273;51.290;6.918;2023-05-10T11:16:14;16.50;99.90
10451;DHT22;5273;51.290;6.918;2023-05-10T11:18:52;16.60;99.90
10451;DHT22;5273;51.290;6.918;2023-05-10T11:21:19;16.70;99.90
10451;DHT22;5273;51.290;6.918;2023-05-10T11:23:51;16.80;99.90
10451;DHT22;5273;51.290;6.918;2023-05-10T11:26:22;17.00;99.90
10451;DHT22;5273;51.290;6.918;2023-05-10T11:28:52;17.20;99.90
10451;DHT22;5273;51.290;6.918;2023-05-10T11:31:21;17.40;99.90
10451;DHT22;5273;51.290;6.918;2023-05-10T11:33:51;17.60;99.90
10451;DHT22;5273;51.290;6.918;2023-05-10T11:36:19;17.80;99.90
10451;DHT22;5273;51.290;6.918;2023-05-10T11:38:47;17.90;99.90
10451;DHT22;5273;51.290;6.918;2023-05-10T11:41:17;18.00;99.90
10451;DHT22;5273;51.290;6.918;2023-05-10T11:43:47;18.00;99.90
10451;DHT22;5273;51.290;6.918;2023-05-10T11:46:14;17.90;99.90
10451;DHT22;5273;51.290;6.918;2023-05-10T11:48:42;17.70;99.90
10451;DHT22;5273;51.290;6.918;2023-05-10T11:51:10;17.50;99.90
10451;DHT22;5273;51.290;6.918;2023-05-10T11:53:37;17.30;99.90
10451;DHT22;5273;51.290;6.918;2023-05-10T11:56:05;17.20;99.90
10451;DHT22;5273;51.290;6.918;2023-05-10T11:58:34;17.10;99.90
10451;DHT22;5273;51.290;6.918;2023-05-10T12:01:01;17.10;99.90
10451;DHT22;5273;51.290;6.918;2023-05-10T12:03:29;17.10;99.90
10451;DHT22;5273;51.290;6.918;2023-05-10T12:05:57;17.20;99.90
10451;DHT22;5273;51.290;6.918;2023-05-10T12:08:26;17.30;99.90
10451;DHT22;5273;51.290;6.918;2023-05-10T12:10:54;17.30;99.90
10451;DHT22;5273;51.290;6.918;2023-05-10T12:13:30;17.40;99.90
10451;DHT22;5273;51.290;6.918;2023-05-10T12:15:59;17.40;99.90
10451;DHT22;5273;51.290;6.918;2023-05-10T12:18:26;17.40;99.90
10451;DHT22;5273;51.290;6.918;2023-05-10T12:20:53;17.60;99.90
10451;DHT22;5273;51.290;6.918;2023-05-10T12:23:20;17.70;99.90
10451;DHT22;5273;51.290;6.918;2023-05-10T12:25:47;17.90;99.90
10451;DHT22;5273;51.290;6.918;2023-05-10T12:28:13;18.40;99.90
10451;DHT22;5273;51.290;6.918;2023-05-10T12:30:40;18.20;99.90
10451;DHT22;5273;51.290;6.918;2023-05-10T12:33:11;18.20;99.90
10451;DHT22;5273;51.290;6.918;2023-05-10T12:35:48;18.20;99.90
10451;DHT22;5273;51.290;6.918;2023-05-10T12:38:25;18.30;99.90
10451;DHT22;5273;51.290;6.918;2023-05-10T12:40:54;18.50;99.90
10451;DHT22;5273;51.290;6.918;2023-05-10T12:43:21;18.60;99.90
10451;DHT22;5273;51.290;6.918;2023-05-10T12:45:47;18.80;99.90
10451;DHT22;5273;51.290;6.918;2023-05-10T12:48:15;19.00;99.90
10451;DHT22;5273;51.290;6.918;2023-05-10T12:50:42;19.10;99.90
10451;DHT22;5273;51.290;6.918;2023-05-10T12:53:09;19.30;99.90
10451;DHT22;5273;51.290;6.918;2023-05-10T12:55:36;19.40;99.90
10451;DHT22;5273;51.290;6.918;2023-05-10T12:58:02;19.70;99.90
10451;DHT22;5273;51.290;6.918;2023-05-10T13:00:29;19.90;99.00
10451;DHT22;5273;51.290;6.918;2023-05-10T13:02:56;20.00;99.20
10451;DHT22;5273;51.290;6.918;2023-05-10T13:05:24;20.20;99.20
10451;DHT22;5273;51.290;6.918;2023-05-10T13:07:51;20.40;99.00
10451;DHT22;5273;51.290;6.918;2023-05-10T13:10:18;20.30;98.00
10451;DHT22;5273;51.290;6.918;2023-05-10T13:12:44;20.60;97.40
10451;DHT22;5273;51.290;6.918;2023-05-10T13:15:11;20.60;96.60
10451;DHT22;5273;51.290;6.918;2023-05-10T13:17:38;20.60;96.60
10451;DHT22;5273;51.290;6.918;2023-05-10T13:20:06;20.50;96.10
10451;DHT22;5273;51.290;6.918;2023-05-10T13:22:35;20.50;96.40
10451;DHT22;5273;51.290;6.918;2023-05-10T13:25:01;20.30;95.90
10451;DHT22;5273;51.290;6.918;2023-05-10T13:27:28;20.20;95.40
10451;DHT22;5273;51.290;6.918;2023-05-10T13:29:55;20.10;95.90
10451;DHT22;5273;51.290;6.918;2023-05-10T13:32:22;20.10;96.30
10451;DHT22;5273;51.290;6.918;2023-05-10T13:34:49;20.10;96.30
10451;DHT22;5273;51.290;6.918;2023-05-10T13:37:16;20.10;96.30
10451;DHT22;5273;51.290;6.918;2023-05-10T13:39:44;20.10;96.40
10451;DHT22;5273;51.290;6.918;2023-05-10T13:42:10;20.00;96.20
10451;DHT22;5273;51.290;6.918;2023-05-10T13:44:37;20.00;96.40
10451;DHT22;5273;51.290;6.918;2023-05-10T13:47:04;20.00;96.10
10451;DHT22;5273;51.290;6.918;2023-05-10T13:49:31;19.90;95.80
10451;DHT22;5273;51.290;6.918;2023-05-10T13:51:59;19.90;95.40
10451;DHT22;5273;51.290;6.918;2023-05-10T13:54:31;19.90;94.50
10451;DHT22;5273;51.290;6.918;2023-05-10T13:56:59;19.90;95.40
10451;DHT22;5273;51.290;6.918;2023-05-10T13:59:26;19.90;95.30
10451;DHT22;5273;51.290;6.918;2023-05-10T14:01:53;20.00;95.10
10451;DHT22;5273;51.290;6.918;2023-05-10T14:04:20;20.00;95.80
10451;DHT22;5273;51.290;6.918;2023-05-10T14:06:46;20.20;95.10
10451;DHT22;5273;51.290;6.918;2023-05-10T14:09:13;20.30;95.00
10451;DHT22;5273;51.290;6.918;2023-05-10T14:11:40;20.30;95.30
10451;DHT22;5273;51.290;6.918;2023-05-10T14:14:10;20.20;95.40
10451;DHT22;5273;51.290;6.918;2023-05-10T14:16:36;20.30;96.10
10451;DHT22;5273;51.290;6.918;2023-05-10T14:19:03;20.40;94.80
10451;DHT22;5273;51.290;6.918;2023-05-10T14:21:30;20.40;94.90
10451;DHT22;5273;51.290;6.918;2023-05-10T14:23:57;20.40;95.20
10451;DHT22;5273;51.290;6.918;2023-05-10T14:26:23;20.30;94.60
10451;DHT22;5273;51.290;6.918;2023-05-10T14:28:51;20.30;94.30
10451;DHT22;5273;51.290;6.918;2023-05-10T14:31:20;20.20;95.30
10451;DHT22;5273;51.290;6.918;2023-05-10T14:33:46;20.30;95.10
10451;DHT22;5273;51.290;6.918;2023-05-10T14:36:13;20.40;94.30
10451;DHT22;5273;51.290;6.918;2023-05-10T14:38:40;20.40;94.40
10451;DHT22;5273;51.290;6.918;2023-05-10T14:41:07;20.50;94.00
10451;DHT22;5273;51.290;6.918;2023-05-10T14:43:34;20.40;94.00
10451;DHT22;5273;51.290;6.918;2023-05-10T14:46:02;20.40;94.70
10451;DHT22;5273;51.290;6.918;2023-05-10T14:48:30;20.30;94.80
10451;DHT22;5273;51.290;6.918;2023-05-10T14:50:57;20.20;95.10
10451;DHT22;5273;51.290;6.918;2023-05-10T14:53:23;20.10;94.70
10451;DHT22;5273;51.290;6.918;2023-05-10T14:55:50;20.10;94.80
10451;DHT22;5273;51.290;6.918;2023-05-10T14:58:17;20.00;94.90
10451;DHT22;5273;51.290;6.918;2023-05-10T15:00:44;20.10;94.60
10451;DHT22;5273;51.290;6.918;2023-05-10T15:03:11;20.00;95.50
10451;DHT22;5273;51.290;6.918;2023-05-10T15:05:39;19.90;95.00
10451;DHT22;5273;51.290;6.918;2023-05-10T15:08:06;19.70;96.10
10451;DHT22;5273;51.290;6.918;2023-05-10T15:10:34;19.50;97.00
10451;DHT22;5273;51.290;6.918;2023-05-10T15:13:04;19.40;97.50
10451;DHT22;5273;51.290;6.918;2023-05-10T15:15:30;19.40;97.60
10451;DHT22;5273;51.290;6.918;2023-05-10T15:17:57;19.40;97.60
10451;DHT22;5273;51.290;6.918;2023-05-10T15:20:24;19.30;97.50
10451;DHT22;5273;51.290;6.918;2023-05-10T15:22:52;19.20;98.00
10451;DHT22;5273;51.290;6.918;2023-05-10T15:25:19;19.10;97.60
10451;DHT22;5273;51.290;6.918;2023-05-10T15:27:46;18.70;97.40
10451;DHT22;5273;51.290;6.918;2023-05-10T15:30:13;18.80;98.20
10451;DHT22;5273;51.290;6.918;2023-05-10T15:32:40;18.80;98.50
10451;DHT22;5273;51.290;6.918;2023-05-10T15:35:08;18.70;99.10
10451;DHT22;5273;51.290;6.918;2023-05-10T15:37:35;18.80;99.90
10451;DHT22;5273;51.290;6.918;2023-05-10T15:40:05;18.80;99.90
10451;DHT22;5273;51.290;6.918;2023-05-10T15:42:32;18.80;99.20
10451;DHT22;5273;51.290;6.918;2023-05-10T15:44:59;18.80;98.40
10451;DHT22;5273;51.290;6.918;2023-05-10T15:47:26;18.80;98.00
10451;DHT22;5273;51.290;6.918;2023-05-10T15:49:53;18.70;98.60
10451;DHT22;5273;51.290;6.918;2023-05-10T15:52:20;18.70;99.70